Time;durP1;ratioP1;P1;durP2;ratioP2;P2;SDS_P1;SDS_P2;PMS_P1;PMS_P2;Temp;Humidity;BMP_temperature;BMP_pressure;BME280_temperature;BME280_humidity;BME280_pressure;Samples;Min_cycle;Max_cycle;Signal;HPM_P1;HPM_P2
2023/05/03 00:00:16;;;;;;;6.57;3.58;;;;;;;1.89;77.39;102703.94;4908932;29;20486;-80
2023/05/03 00:02:43;;;;;;;4.10;3.35;;;;;;;1.80;77.83;102705.34;4885101;29;20138;-81
2023/05/03 00:08:55;;;;;;;4.97;3.85;;;;;;;1.71;78.48;102709.44;4897280;29;20148;-81
2023/05/03 00:11:20;;;;;;;5.07;3.88;;;;;;;1.71;78.63;102728.00;4893137;29;20045;-81
2023/05/03 00:13:48;;;;;;;6.13;3.60;;;;;;;1.74;79.10;102722.53;4903987;29;20048;-80
2023/05/03 00:16:14;;;;;;;6.82;4.03;;;;;;;1.73;79.31;102727.94;4912873;29;20280;-81
2023/05/03 00:18:39;;;;;;;6.40;3.70;;;;;;;1.70;78.97;102720.16;4895359;29;20040;-81
2023/05/03 00:21:05;;;;;;;5.97;4.07;;;;;;;1.70;79.06;102723.66;4882850;29;20042;-81
2023/05/03 00:23:30;;;;;;;4.70;3.43;;;;;;;1.67;78.77;102715.91;4899975;29;20048;-81
2023/05/03 00:25:56;;;;;;;6.07;4.67;;;;;;;1.63;78.99;102720.50;4908539;29;20288;-81
2023/05/03 00:28:21;;;;;;;5.57;4.13;;;;;;;1.61;79.06;102719.75;4911335;29;20701;-81
2023/05/03 00:30:48;;;;;;;4.57;3.92;;;;;;;1.60;79.67;102717.19;4922349;29;20044;-82
2023/05/03 00:33:15;;;;;;;7.70;4.80;;;;;;;1.63;80.01;102717.00;4911300;29;20397;-80
2023/05/03 00:35:44;;;;;;;7.90;4.68;;;;;;;1.60;79.34;102718.03;4882600;29;20065;-81
2023/05/03 00:38:10;;;;;;;6.68;3.83;;;;;;;1.58;79.82;102714.66;4900531;29;20031;-80
2023/05/03 00:40:35;;;;;;;9.82;4.60;;;;;;;1.57;79.25;102718.25;4906397;29;20127;-80
2023/05/03 00:43:01;;;;;;;8.30;5.10;;;;;;;1.64;79.55;102718.72;4903313;29;20400;-80
2023/05/03 00:45:26;;;;;;;6.57;4.30;;;;;;;1.58;79.85;102714.66;4911706;29;20048;-81
2023/05/03 00:47:51;;;;;;;6.70;4.17;;;;;;;1.56;80.00;102715.66;4906002;29;20499;-80
2023/05/03 00:50:22;;;;;;;7.70;4.60;;;;;;;1.58;79.71;102721.72;4891277;29;20052;-81
2023/05/03 00:52:47;;;;;;;6.10;4.07;;;;;;;1.58;79.63;102719.94;4901956;29;20045;-81
2023/05/03 00:55:16;;;;;;;8.27;5.13;;;;;;;1.69;79.79;102716.63;4891119;29;20369;-81
2023/05/03 00:57:41;;;;;;;6.78;4.05;;;;;;;1.61;79.37;102719.75;4869079;29;20143;-81
2023/05/03 01:00:13;;;;;;;6.97;4.50;;;;;;;1.59;80.06;102724.28;4909469;29;20404;-81
2023/05/03 01:02:38;;;;;;;7.40;4.82;;;;;;;1.54;79.49;102718.41;4891051;29;20230;-81
2023/05/03 01:05:06;;;;;;;6.70;4.53;;;;;;;1.50;79.83;102715.06;4896305;29;20044;-81
2023/05/03 01:07:52;;;;;;;7.18;4.78;;;;;;;1.49;79.92;102712.53;4908654;29;20171;-81
2023/05/03 01:10:47;;;;;;;6.78;4.97;;;;;;;1.45;79.88;102716.28;4914476;29;20047;-80
2023/05/03 01:13:30;;;;;;;7.85;4.85;;;;;;;1.47;80.25;102706.44;4871376;29;20040;-80
2023/05/03 01:16:20;;;;;;;9.27;4.80;;;;;;;1.58;80.50;102713.78;4917996;29;20408;-80
2023/05/03 01:18:48;;;;;;;7.55;4.93;;;;;;;1.61;79.81;102709.13;4894597;29;20074;-81
2023/05/03 01:21:16;;;;;;;14.20;5.45;;;;;;;1.70;79.71;102715.69;4887622;29;20040;-81
2023/05/03 01:23:45;;;;;;;10.95;5.68;;;;;;;1.67;80.02;102722.03;4900503;29;20044;-81
2023/05/03 01:26:22;;;;;;;6.97;5.43;;;;;;;1.70;79.65;102714.84;4879195;29;20040;-80
2023/05/03 01:28:48;;;;;;;9.80;5.22;;;;;;;1.66;79.85;102720.34;4894248;29;20066;-80
2023/05/03 01:31:34;;;;;;;7.80;5.60;;;;;;;1.70;79.77;102706.88;4902961;29;20519;-81
2023/05/03 01:34:35;;;;;;;9.65;5.57;;;;;;;1.74;79.62;102719.03;4884367;29;20148;-81
2023/05/03 01:37:02;;;;;;;12.13;5.75;;;;;;;1.71;79.85;102713.91;4858885;29;20056;-79
2023/05/03 01:39:41;;;;;;;11.07;5.60;;;;;;;1.63;79.70;102717.00;4882457;29;20036;-81
2023/05/03 01:42:06;;;;;;;8.35;5.07;;;;;;;1.56;80.06;102715.66;4860677;29;20136;-81
2023/05/03 01:44:31;;;;;;;8.15;5.72;;;;;;;1.46;80.24;102723.31;4909835;29;20047;-80
2023/05/03 01:46:57;;;;;;;9.80;5.00;;;;;;;1.33;80.39;102726.69;4903167;29;20433;-81
2023/05/03 01:49:22;;;;;;;9.03;5.27;;;;;;;1.30;80.71;102726.88;4903606;29;20039;-81
2023/05/03 01:51:48;;;;;;;6.53;4.43;;;;;;;1.26;80.98;102735.94;4919325;29;20330;-80
2023/05/03 01:54:13;;;;;;;12.37;6.13;;;;;;;1.20;81.41;102742.47;4908506;29;20054;-80
2023/05/03 01:56:41;;;;;;;9.20;5.90;;;;;;;1.23;81.45;102743.22;4885985;29;20483;-81
2023/05/03 01:59:06;;;;;;;7.72;5.43;;;;;;;1.15;81.72;102749.81;4904521;29;20060;-80
2023/05/03 02:01:32;;;;;;;12.07;5.67;;;;;;;1.09;82.14;102744.88;4903027;29;20096;-80
2023/05/03 02:04:00;;;;;;;6.47;4.63;;;;;;;1.01;82.35;102747.97;4901727;29;20048;-80
2023/05/03 02:06:25;;;;;;;9.70;6.22;;;;;;;0.93;82.31;102750.19;4908532;29;20379;-81
2023/05/03 02:08:51;;;;;;;9.38;5.57;;;;;;;0.85;82.03;102752.44;4913749;29;20064;-81
2023/05/03 02:11:17;;;;;;;;;;;;;;;0.75;82.31;102746.78;4901988;29;20048;-81
2023/05/03 02:13:42;;;;;;;7.68;5.22;;;;;;;0.69;82.10;102748.00;4923821;29;21022;-81
2023/05/03 02:16:08;;;;;;;6.23;4.30;;;;;;;0.68;82.44;102746.28;4917252;29;20039;-81
2023/05/03 02:18:34;;;;;;;12.82;5.80;;;;;;;0.72;82.52;102744.31;4906335;29;20311;-81
2023/05/03 02:21:03;;;;;;;11.35;5.40;;;;;;;0.70;83.11;102739.09;4879495;29;20547;-81
2023/05/03 02:23:28;;;;;;;8.98;6.20;;;;;;;0.70;82.84;102739.09;4893471;29;20559;-81
2023/05/03 02:25:54;;;;;;;9.68;5.88;;;;;;;0.77;82.92;102733.44;4903299;29;20044;-81
2023/05/03 02:28:25;;;;;;;11.17;6.73;;;;;;;0.88;82.99;102736.38;4903157;29;20496;-80
2023/05/03 02:30:53;;;;;;;9.80;6.35;;;;;;;0.89;82.74;102730.09;4907609;29;20043;-81
2023/05/03 02:33:19;;;;;;;14.63;7.05;;;;;;;0.87;82.72;102729.34;4909529;29;20055;-80
2023/05/03 02:35:44;;;;;;;8.48;5.97;;;;;;;0.90;83.23;102726.50;4916081;29;20057;-79
2023/05/03 02:38:10;;;;;;;9.63;6.33;;;;;;;0.92;83.29;102724.63;4913618;29;20470;-79
2023/05/03 02:40:35;;;;;;;12.07;6.43;;;;;;;0.93;82.63;102730.78;4920389;29;20052;-79
2023/05/03 02:43:01;;;;;;;10.37;6.27;;;;;;;0.84;82.29;102721.56;4895634;29;20296;-80
2023/05/03 02:45:26;;;;;;;10.88;6.20;;;;;;;0.79;83.01;102715.66;4874625;29;20075;-81
2023/05/03 02:47:55;;;;;;;11.50;6.43;;;;;;;0.84;83.20;102721.56;4889570;29;20052;-80
2023/05/03 02:50:20;;;;;;;11.75;6.60;;;;;;;0.81;82.94;102729.69;4891765;29;20055;-80
2023/05/03 02:52:46;;;;;;;11.17;6.37;;;;;;;0.75;83.38;102725.59;4882236;29;20052;-81
2023/05/03 02:55:11;;;;;;;13.50;6.10;;;;;;;0.70;83.40;102723.19;4890541;29;20049;-80
2023/05/03 02:57:36;;;;;;;13.70;6.87;;;;;;;0.73;82.96;102723.00;4922892;29;20856;-80
2023/05/03 03:00:04;;;;;;;9.77;6.00;;;;;;;0.66;83.70;102719.00;4925165;29;20059;-81
2023/05/03 03:02:29;;;;;;;12.15;6.35;;;;;;;0.62;83.50;102714.81;4912728;29;20063;-81
2023/05/03 03:04:55;;;;;;;10.20;6.00;;;;;;;0.55;83.62;102703.69;4917411;29;20047;-81
2023/05/03 03:07:22;;;;;;;6.23;4.90;;;;;;;0.48;83.35;102709.41;4906633;29;20055;-82
2023/05/03 03:09:48;;;;;;;9.60;4.90;;;;;;;0.40;83.41;102710.69;4895786;29;20051;-79
2023/05/03 03:12:14;;;;;;;8.07;5.45;;;;;;;0.35;83.82;102712.75;4909816;29;20384;-81
2023/05/03 03:14:41;;;;;;;8.48;5.82;;;;;;;0.30;83.98;102709.50;4904003;29;20059;-81
2023/05/03 03:17:10;;;;;;;10.02;6.05;;;;;;;0.28;83.91;102706.06;4892718;29;20504;-80
2023/05/03 03:19:35;;;;;;;9.23;5.45;;;;;;;0.23;84.38;102702.81;4902085;29;20127;-81
2023/05/03 03:22:00;;;;;;;8.53;4.90;;;;;;;0.17;84.11;102704.00;4915022;29;20050;-81
2023/05/03 03:24:26;;;;;;;7.30;5.13;;;;;;;0.16;84.16;102701.44;4906900;29;20066;-80
2023/05/03 03:26:52;;;;;;;7.13;4.73;;;;;;;0.10;84.24;102708.75;4902365;29;20054;-80
2023/05/03 03:29:21;;;;;;;10.43;5.85;;;;;;;0.12;84.77;102691.00;4904271;29;20116;-80
2023/05/03 03:35:19;;;;;;;11.80;6.47;;;;;;;0.40;85.01;102686.00;4851470;29;20159;-80
2023/05/03 03:38:03;;;;;;;8.38;5.88;;;;;;;0.37;85.22;102673.75;4892854;29;20052;-81
2023/05/03 03:44:16;;;;;;;12.60;6.57;;;;;;;0.50;85.38;102667.78;4905869;29;20055;-81
2023/05/03 03:46:43;;;;;;;10.65;6.38;;;;;;;0.57;84.84;102664.72;4914974;29;20070;-80
2023/05/03 03:49:08;;;;;;;12.13;6.25;;;;;;;0.61;84.50;102657.44;4918003;29;20480;-80
2023/05/03 03:51:41;;;;;;;13.70;7.25;;;;;;;0.67;84.73;102657.09;4900317;29;20047;-80
2023/05/03 03:54:07;;;;;;;15.25;6.40;;;;;;;0.72;84.06;102659.47;4891643;29;20086;-80
2023/05/03 03:56:33;;;;;;;10.77;7.25;;;;;;;0.70;84.08;102671.97;4885857;29;20123;-80
2023/05/03 03:58:58;;;;;;;10.67;6.90;;;;;;;0.71;84.25;102671.03;4905251;29;20054;-80
2023/05/03 04:01:27;;;;;;;13.33;7.13;;;;;;;0.72;83.83;102670.91;4928811;29;20055;-81
2023/05/03 04:03:55;;;;;;;12.07;7.10;;;;;;;0.68;83.98;102672.06;4911179;29;20544;-81
2023/05/03 04:06:20;;;;;;;12.18;6.85;;;;;;;0.68;83.90;102679.16;4892705;29;20087;-81
2023/05/03 04:09:15;;;;;;;9.63;6.80;;;;;;;0.67;84.76;102688.91;4896896;29;20064;-77
2023/05/03 04:11:41;;;;;;;12.25;6.47;;;;;;;0.63;84.16;102682.06;4898129;29;20045;-78
2023/05/03 04:14:07;;;;;;;14.60;7.30;;;;;;;0.64;84.11;102699.69;4908958;29;20857;-83
2023/05/03 04:16:33;;;;;;;11.38;6.05;;;;;;;0.63;84.05;102703.25;4911027;29;20052;-83
2023/05/03 04:18:59;;;;;;;9.97;6.40;;;;;;;0.64;84.48;102712.06;4915688;29;20052;-79
2023/05/03 04:21:24;;;;;;;9.95;6.00;;;;;;;0.62;84.54;102714.81;4911893;29;20466;-81
2023/05/03 04:23:50;;;;;;;15.48;7.00;;;;;;;0.60;84.04;102708.72;4889628;29;20044;-82
2023/05/03 04:26:16;;;;;;;13.90;5.50;;;;;;;0.57;84.32;102706.25;4909443;29;20048;-79
2023/05/03 04:28:41;;;;;;;;;;;;;;;0.53;84.53;102713.53;4923558;29;20076;-80
2023/05/03 04:31:10;;;;;;;15.15;6.38;;;;;;;0.50;84.24;102710.19;4899068;29;20076;-83
2023/05/03 04:33:36;;;;;;;13.35;7.65;;;;;;;0.47;84.12;102719.16;4897956;29;20039;-79
2023/05/03 04:36:01;;;;;;;9.18;5.95;;;;;;;0.46;84.29;102720.09;4924289;29;20043;-80
2023/05/03 04:38:27;;;;;;;10.43;6.97;;;;;;;0.45;84.28;102713.06;4902954;29;20115;-77
2023/05/03 04:40:57;;;;;;;10.97;6.73;;;;;;;0.49;84.52;102719.91;4899389;29;20047;-80
2023/05/03 04:43:22;;;;;;;9.98;6.47;;;;;;;0.58;84.46;102726.50;4892503;29;20045;-79
2023/05/03 04:45:48;;;;;;;13.80;6.65;;;;;;;0.68;83.83;102730.38;4921010;29;20514;-79
2023/05/03 04:48:16;;;;;;;10.20;6.90;;;;;;;0.85;84.25;102731.22;4887739;29;20044;-78
2023/05/03 04:50:42;;;;;;;14.23;7.10;;;;;;;1.00;83.66;102735.66;4899625;29;20134;-78
2023/05/03 04:53:08;;;;;;;11.88;6.80;;;;;;;1.10;83.22;102730.69;4918386;29;20123;-78
2023/05/03 04:55:33;;;;;;;9.18;6.20;;;;;;;1.25;82.55;102742.19;4899095;29;20044;-79
2023/05/03 04:58:02;;;;;;;9.40;7.13;;;;;;;1.41;82.33;102749.28;4905403;29;20038;-77
2023/05/03 05:00:28;;;;;;;11.77;7.00;;;;;;;1.57;81.98;102755.41;4913534;29;20295;-80
2023/05/03 05:02:54;;;;;;;12.43;7.45;;;;;;;1.90;81.13;102750.81;4913283;29;20389;-78
2023/05/03 05:05:19;;;;;;;11.07;7.15;;;;;;;2.22;79.88;102764.78;4912207;29;20055;-78
2023/05/03 05:07:45;;;;;;;11.37;6.70;;;;;;;2.60;78.43;102766.00;4874601;29;20506;-79
2023/05/03 05:10:10;;;;;;;11.05;6.63;;;;;;;3.15;76.51;102771.38;4852808;29;20067;-79
2023/05/03 05:12:36;;;;;;;12.25;6.70;;;;;;;3.92;74.06;102766.25;4884701;29;20520;-79
2023/05/03 05:15:01;;;;;;;9.57;6.27;;;;;;;4.49;70.92;102773.88;4904986;29;20402;-79
2023/05/03 05:17:26;;;;;;;13.13;6.13;;;;;;;4.88;69.11;102777.31;4902234;29;20807;-78
2023/05/03 05:19:52;;;;;;;9.13;5.60;;;;;;;4.99;69.67;102780.06;4905831;29;20040;-79
2023/05/03 05:22:18;;;;;;;10.55;5.88;;;;;;;4.89;68.75;102775.50;4907810;29;20352;-79
2023/05/03 05:27:29;;;;;;;8.00;5.85;;;;;;;4.43;70.64;102779.66;4941365;23;19926;-79
2023/05/03 05:30:22;;;;;;;10.68;6.10;;;;;;;4.24;71.12;102786.28;4865345;29;20061;-79
2023/05/03 05:33:02;;;;;;;9.65;5.68;;;;;;;4.15;71.71;102786.94;4832514;29;20062;-78
2023/05/03 05:35:40;;;;;;;9.73;6.25;;;;;;;4.13;72.11;102794.16;4828384;29;20133;-78
2023/05/03 05:41:43;;;;;;;9.20;5.47;;;;;;;5.04;68.83;102792.22;4832947;29;20459;-77
2023/05/03 05:44:09;;;;;;;7.72;5.05;;;;;;;5.74;67.44;102785.25;4821383;29;20053;-79
2023/05/03 05:57:08;;;;;;;7.53;4.65;;;;;;;7.28;60.22;102812.38;4797824;29;20058;-79
2023/05/03 05:59:33;;;;;;;8.25;4.30;;;;;;;6.96;60.62;102810.53;4791400;29;20081;-80
2023/05/03 06:05:05;;;;;;;11.35;4.32;;;;;;;7.32;59.47;102804.94;4848049;29;19927;-78
2023/05/03 06:10:54;;;;;;;7.50;4.30;;;;;;;9.96;51.47;102812.31;4920443;23;20447;-80
2023/05/03 06:13:37;;;;;;;6.28;3.88;;;;;;;11.25;48.83;102808.06;4895443;29;20511;-79
2023/05/03 06:16:03;;;;;;;10.15;4.18;;;;;;;11.74;45.64;102810.31;4840006;29;20097;-78
2023/05/03 06:18:49;;;;;;;5.63;3.80;;;;;;;12.17;45.43;102813.22;4886940;29;20069;-78
2023/05/03 06:21:16;;;;;;;7.28;4.05;;;;;;;12.33;44.97;102803.53;4854999;29;20052;-79
2023/05/03 06:24:34;;;;;;;5.50;4.03;;;;;;;13.16;42.78;102812.75;4876559;29;20048;-79
2023/05/03 06:27:02;;;;;;;;;;;;;;;13.75;40.92;102812.69;4883436;29;20517;-80
2023/05/03 06:29:28;;;;;;;7.40;4.10;;;;;;;13.84;41.01;102810.81;4862254;29;19931;-81
2023/05/03 06:31:53;;;;;;;5.47;3.63;;;;;;;14.14;40.05;102808.41;4861028;29;20053;-85
2023/05/03 06:37:42;;;;;;;5.13;3.30;;;;;;;15.28;37.81;102808.09;4870656;29;20169;-84
2023/05/03 06:40:08;;;;;;;7.85;3.65;;;;;;;15.34;38.09;102813.81;4862912;29;20527;-84
2023/05/03 06:42:36;;;;;;;6.15;3.53;;;;;;;14.99;39.15;102815.06;4913417;29;20052;-83
2023/05/03 06:45:05;;;;;;;5.70;3.38;;;;;;;15.53;36.87;102809.75;4910060;29;20059;-83
2023/05/03 06:47:30;;;;;;;5.80;3.25;;;;;;;15.69;36.72;102814.22;4909281;29;20048;-84
2023/05/03 06:50:23;;;;;;;5.45;3.00;;;;;;;16.15;35.54;102811.44;4922684;29;20040;-86
2023/05/03 06:52:57;;;;;;;5.97;3.10;;;;;;;15.83;36.46;102810.69;4895876;29;20052;-86
2023/05/03 06:55:31;;;;;;;3.95;2.70;;;;;;;16.26;35.37;102814.69;4906579;29;20049;-86
2023/05/03 06:58:10;;;;;;;5.78;2.83;;;;;;;15.07;36.54;102806.03;4919256;29;20052;-84
2023/05/03 07:00:42;;;;;;;6.03;2.67;;;;;;;15.49;36.35;102808.44;4886085;29;20269;-85
2023/05/03 07:03:07;;;;;;;4.22;2.60;;;;;;;14.43;38.06;102800.69;4897011;29;20056;-86
2023/05/03 07:05:48;;;;;;;5.50;2.90;;;;;;;13.98;39.51;102784.06;4909562;29;20127;-86
2023/05/03 07:08:13;;;;;;;3.80;2.58;;;;;;;15.29;36.93;102793.50;4915934;29;20051;-85
2023/05/03 07:11:29;;;;;;;5.97;2.53;;;;;;;15.05;36.93;102793.66;4893054;29;20044;-85
2023/05/03 07:14:00;;;;;;;8.80;2.80;;;;;;;15.21;37.17;102779.97;4901993;29;20047;-84
2023/05/03 07:16:26;;;;;;;5.38;2.35;;;;;;;16.41;34.61;102801.13;4901150;29;20148;-85
2023/05/03 07:18:51;;;;;;;6.68;2.70;;;;;;;16.36;35.18;102793.53;4920135;29;20043;-85
2023/05/03 07:21:17;;;;;;;5.07;2.72;;;;;;;16.10;34.09;102781.25;4897065;29;20087;-85
2023/05/03 07:23:43;;;;;;;4.60;2.40;;;;;;;16.56;33.68;102795.69;4892505;29;20043;-85
2023/05/03 07:26:08;;;;;;;4.22;2.20;;;;;;;17.17;33.51;102789.94;4919299;29;20051;-85
2023/05/03 07:28:34;;;;;;;5.25;1.73;;;;;;;16.64;32.42;102787.41;4900832;29;20052;-84
2023/05/03 07:30:59;;;;;;;8.93;1.90;;;;;;;16.20;32.32;102787.25;4908207;29;20048;-85
2023/05/03 07:33:25;;;;;;;7.32;2.17;;;;;;;15.70;33.04;102794.19;4914887;29;20040;-84
2023/05/03 07:35:53;;;;;;;3.25;2.00;;;;;;;16.88;32.58;102785.41;4917440;29;20441;-85
2023/05/03 07:38:18;;;;;;;6.03;1.80;;;;;;;17.65;30.86;102781.13;4917733;29;20059;-85
2023/05/03 07:40:43;;;;;;;4.32;1.90;;;;;;;17.91;30.06;102771.47;4914075;29;20032;-85
2023/05/03 07:43:09;;;;;;;3.60;2.10;;;;;;;15.81;33.14;102772.00;4901271;29;20048;-85
2023/05/03 07:45:35;;;;;;;5.53;2.00;;;;;;;17.21;31.82;102761.25;4909041;29;20052;-86
2023/05/03 07:48:01;;;;;;;4.00;1.83;;;;;;;17.07;31.87;102779.38;4923093;29;20043;-85
2023/05/03 07:50:26;;;;;;;5.32;1.80;;;;;;;17.68;31.28;102769.00;4915768;29;20033;-85
2023/05/03 07:52:52;;;;;;;4.28;2.03;;;;;;;17.75;30.84;102779.97;4915458;29;20036;-85
2023/05/03 07:55:18;;;;;;;4.40;1.98;;;;;;;17.78;30.19;102772.22;4927317;29;20048;-85
2023/05/03 07:57:44;;;;;;;3.42;1.85;;;;;;;17.87;30.05;102775.63;4914594;29;20091;-85
2023/05/03 08:00:11;;;;;;;5.68;2.40;;;;;;;17.78;30.43;102768.66;4911506;29;20130;-86
2023/05/03 08:02:36;;;;;;;4.45;2.10;;;;;;;17.02;31.48;102768.19;4926389;29;20126;-83
2023/05/03 08:05:06;;;;;;;3.45;2.30;;;;;;;17.89;30.27;102759.94;4919972;29;20050;-86
2023/05/03 08:07:31;;;;;;;3.92;2.00;;;;;;;18.21;30.05;102757.63;4909101;29;20408;-85
2023/05/03 08:09:57;;;;;;;7.20;2.10;;;;;;;18.93;29.24;102758.13;4886640;29;1073293;-85
2023/05/03 08:12:24;;;;;;;4.63;1.98;;;;;;;19.32;28.35;102752.13;4920096;29;20828;-86
2023/05/03 08:14:54;;;;;;;5.55;2.22;;;;;;;18.78;28.73;102749.25;4922563;29;20036;-86
2023/05/03 08:17:21;;;;;;;2.78;1.90;;;;;;;18.77;28.64;102745.72;4925449;29;20070;-86
2023/05/03 08:19:46;;;;;;;4.82;2.20;;;;;;;18.39;29.05;102754.38;4893770;29;20046;-85
2023/05/03 08:22:12;;;;;;;3.95;1.98;;;;;;;18.88;28.95;102752.47;4900663;29;20039;-86
2023/05/03 08:24:41;;;;;;;3.58;1.98;;;;;;;19.56;27.96;102750.63;4911091;29;20059;-85
2023/05/03 08:27:09;;;;;;;4.57;2.08;;;;;;;19.74;27.60;102746.41;4920269;29;20078;-85
2023/05/03 08:29:38;;;;;;;4.60;2.33;;;;;;;19.26;28.59;102745.59;4902265;29;20492;-85
2023/05/03 08:32:03;;;;;;;5.15;2.20;;;;;;;19.35;28.30;102746.25;4912156;29;20044;-85
2023/05/03 08:34:29;;;;;;;4.15;2.00;;;;;;;19.36;27.88;102742.47;4918302;29;20484;-85
2023/05/03 08:36:58;;;;;;;4.25;2.30;;;;;;;19.30;27.84;102737.81;4927756;29;20050;-85
2023/05/03 08:39:25;;;;;;;3.58;2.10;;;;;;;19.98;27.60;102739.47;4913213;29;20068;-86
2023/05/03 08:41:50;;;;;;;5.53;2.33;;;;;;;20.96;25.91;102740.31;4916560;29;20050;-86
2023/05/03 08:44:18;;;;;;;4.22;1.90;;;;;;;;;;4921462;29;20044;-86
2023/05/03 08:46:44;;;;;;;4.05;2.20;;;;;;;19.63;27.48;102747.91;4919930;29;20052;-86
2023/05/03 08:49:09;;;;;;;5.43;1.90;;;;;;;20.49;26.97;102747.91;4884370;29;20036;-86
2023/05/03 08:51:35;;;;;;;5.53;2.20;;;;;;;19.84;27.38;102739.47;4858091;29;20443;-85
2023/05/03 08:54:00;;;;;;;5.15;2.10;;;;;;;19.32;28.12;102733.84;4907137;29;20047;-86
2023/05/03 08:56:30;;;;;;;6.70;2.35;;;;;;;19.88;27.76;102728.16;4897991;29;20044;-86
2023/05/03 08:59:00;;;;;;;3.03;2.10;;;;;;;19.83;27.44;102731.50;4883595;29;20044;-86
2023/05/03 09:01:25;;;;;;;4.93;2.40;;;;;;;19.92;27.46;102724.75;4890725;29;20044;-86
2023/05/03 09:03:51;;;;;;;4.05;2.17;;;;;;;20.67;26.68;102723.41;4919115;29;20047;-86
2023/05/03 09:06:20;;;;;;;3.50;1.95;;;;;;;20.99;25.88;102731.66;4922856;29;20047;-84
2023/05/03 09:08:46;;;;;;;3.50;1.92;;;;;;;20.73;25.93;102741.69;4917172;29;20063;-79
2023/05/03 09:11:21;;;;;;;3.67;1.90;;;;;;;20.90;25.68;102732.97;4916033;29;20472;-86
2023/05/03 09:13:51;;;;;;;5.07;2.25;;;;;;;20.64;26.57;102742.16;4919460;29;20110;-86
2023/05/03 09:16:25;;;;;;;4.38;2.15;;;;;;;19.75;26.81;102745.38;4920858;29;20044;-81
2023/05/03 09:18:57;;;;;;;5.63;2.10;;;;;;;20.39;26.72;102740.16;4907545;29;20452;-84
2023/05/03 09:21:22;;;;;;;7.32;2.17;;;;;;;19.93;27.12;102731.91;4913718;29;20040;-85
2023/05/03 09:23:50;;;;;;;3.92;2.00;;;;;;;21.21;25.83;102736.75;4911829;29;20054;-86
2023/05/03 09:26:28;;;;;;;5.00;2.05;;;;;;;21.38;25.43;102737.06;4923529;29;20032;-86
2023/05/03 09:28:55;;;;;;;4.63;1.80;;;;;;;21.51;25.12;102725.16;4911693;29;20564;-86
2023/05/03 09:31:20;;;;;;;4.70;2.00;;;;;;;22.41;24.07;102725.66;4920632;29;20392;-86
2023/05/03 09:33:46;;;;;;;4.32;1.90;;;;;;;22.21;23.71;102713.03;4900805;29;20466;-86
2023/05/03 09:36:11;;;;;;;5.78;2.30;;;;;;;22.26;24.35;102726.03;4920977;29;20068;-85
2023/05/03 09:38:39;;;;;;;3.88;1.77;;;;;;;23.56;22.96;102716.53;4901870;29;20048;-86
2023/05/03 09:41:05;;;;;;;3.42;2.22;;;;;;;21.50;24.37;102696.06;4898006;29;20420;-87
2023/05/03 09:43:30;;;;;;;3.78;1.90;;;;;;;21.75;24.73;102693.31;4921053;29;20052;-87
2023/05/03 09:46:08;;;;;;;4.75;2.17;;;;;;;21.38;25.41;102706.06;4908714;29;20052;-84
2023/05/03 09:48:35;;;;;;;5.53;2.55;;;;;;;20.43;26.19;102701.22;4933994;29;20048;-86
2023/05/03 09:51:02;;;;;;;6.38;2.33;;;;;;;21.62;25.66;102693.47;4912682;29;21424;-86
2023/05/03 09:53:27;;;;;;;5.22;2.20;;;;;;;22.35;24.31;102704.63;4915139;29;20071;-87
2023/05/03 09:55:54;;;;;;;3.22;2.10;;;;;;;21.50;25.06;102701.53;4898948;29;20052;-88
2023/05/03 09:58:20;;;;;;;3.83;1.80;;;;;;;21.51;25.39;102709.53;4915901;29;20040;-87
2023/05/03 10:00:50;;;;;;;4.28;2.22;;;;;;;20.98;25.91;102708.09;4925029;29;20054;-86
2023/05/03 10:03:19;;;;;;;3.65;2.20;;;;;;;21.46;25.16;102717.56;4925107;29;20054;-86
2023/05/03 10:05:48;;;;;;;4.32;2.00;;;;;;;21.73;24.41;102722.84;4901791;29;20064;-85
2023/05/03 10:08:23;;;;;;;4.10;2.22;;;;;;;21.45;25.50;102721.38;4924674;29;20043;-85
2023/05/03 10:10:52;;;;;;;5.18;2.20;;;;;;;20.83;26.11;102729.44;4898310;29;20040;-85
2023/05/03 10:13:17;;;;;;;4.20;2.17;;;;;;;21.74;25.38;102729.16;4903851;29;20048;-85
2023/05/03 10:15:43;;;;;;;3.25;2.10;;;;;;;22.51;24.45;102714.97;4920406;29;20526;-86
2023/05/03 10:18:09;;;;;;;4.25;2.22;;;;;;;22.29;24.09;102719.25;4906603;29;20039;-86
2023/05/03 10:20:43;;;;;;;4.18;2.25;;;;;;;21.31;25.34;102703.38;4892039;29;20043;-86
2023/05/03 10:23:09;;;;;;;3.47;2.15;;;;;;;21.71;25.37;102700.31;4895275;29;20073;-86
2023/05/03 10:25:35;;;;;;;3.90;2.00;;;;;;;22.46;24.25;102714.84;4917095;29;20062;-81
2023/05/03 10:28:02;;;;;;;3.60;2.20;;;;;;;21.67;24.74;102692.75;4916547;29;20056;-86
2023/05/03 10:30:31;;;;;;;5.50;2.42;;;;;;;21.74;24.86;102696.25;4923278;29;20060;-87
2023/05/03 10:32:57;;;;;;;3.35;2.40;;;;;;;21.35;24.61;102697.25;4913385;29;20047;-87
2023/05/03 10:35:29;;;;;;;6.28;2.55;;;;;;;22.41;23.69;102701.78;4912681;29;20049;-87
2023/05/03 10:37:58;;;;;;;6.55;2.22;;;;;;;21.99;24.62;102692.63;4921972;29;20066;-86
2023/05/03 10:40:40;;;;;;;4.88;2.10;;;;;;;21.55;24.36;102687.97;4923079;29;20040;-86
2023/05/03 10:43:05;;;;;;;3.22;2.13;;;;;;;21.94;24.32;102680.44;4922208;29;20126;-86
2023/05/03 10:45:32;;;;;;;4.60;2.30;;;;;;;23.20;23.30;102679.91;4920436;29;20035;-87
2023/05/03 10:48:09;;;;;;;2.70;2.10;;;;;;;22.74;22.99;102685.09;4931839;29;20049;-87
2023/05/03 10:50:35;;;;;;;4.25;2.20;;;;;;;22.60;23.35;102677.06;4935138;29;20458;-87
2023/05/03 10:53:00;;;;;;;3.05;2.25;;;;;;;22.08;23.55;102680.25;4927011;29;20040;-87
2023/05/03 10:55:25;;;;;;;3.97;2.30;;;;;;;22.09;23.50;102682.78;4924155;29;20102;-86
2023/05/03 10:57:54;;;;;;;4.53;2.28;;;;;;;20.96;24.11;102691.03;4914463;29;20429;-87
2023/05/03 11:00:27;;;;;;;4.03;2.45;;;;;;;22.20;22.63;102689.41;4918044;29;20040;-87
2023/05/03 11:03:11;;;;;;;4.55;2.40;;;;;;;22.51;22.47;102695.78;4900243;29;20048;-86
2023/05/03 11:05:37;;;;;;;5.05;2.50;;;;;;;21.53;23.45;102683.81;4925903;29;20048;-86
2023/05/03 11:08:12;;;;;;;4.90;2.50;;;;;;;21.63;23.31;102673.19;4918303;29;20110;-87
2023/05/03 11:10:37;;;;;;;3.85;2.33;;;;;;;22.17;23.99;102672.53;4912704;29;20047;-87
2023/05/03 11:13:03;;;;;;;3.75;2.50;;;;;;;21.46;24.64;102676.47;4912710;29;20500;-86
2023/05/03 11:15:28;;;;;;;5.75;2.72;;;;;;;20.74;25.37;102676.81;4911132;29;20492;-87
2023/05/03 11:17:53;;;;;;;4.75;2.70;;;;;;;21.05;25.89;102673.25;4901344;29;20043;-87
2023/05/03 11:20:19;;;;;;;4.53;2.55;;;;;;;21.86;25.15;102658.81;4900482;29;20415;-87
2023/05/03 11:22:45;;;;;;;4.38;2.58;;;;;;;20.81;25.87;102666.72;4905149;29;20052;-86
2023/05/03 11:25:11;;;;;;;4.68;2.53;;;;;;;20.87;25.25;102665.84;4922362;29;20047;-86
2023/05/03 11:27:36;;;;;;;4.90;2.47;;;;;;;20.39;25.50;102660.84;4923602;29;20106;-87
2023/05/03 11:30:02;;;;;;;3.60;2.40;;;;;;;21.36;24.91;102660.56;4919069;29;20055;-86
2023/05/03 11:32:29;;;;;;;7.47;2.58;;;;;;;22.02;23.79;102660.06;4928113;29;20048;-86
2023/05/03 11:34:55;;;;;;;3.95;2.30;;;;;;;22.99;22.93;102662.94;4911684;29;20044;-86
2023/05/03 11:37:20;;;;;;;2.75;2.22;;;;;;;23.55;22.22;102670.88;4926297;29;20433;-86
2023/05/03 11:39:48;;;;;;;3.55;2.30;;;;;;;23.87;22.37;102676.81;4903836;29;21070;-87
2023/05/03 11:42:14;;;;;;;6.65;2.53;;;;;;;23.11;22.42;102661.06;4917312;29;20044;-86
2023/05/03 11:44:39;;;;;;;4.18;2.40;;;;;;;23.69;22.00;102661.28;4913425;29;20404;-87
2023/05/03 11:47:05;;;;;;;5.35;2.50;;;;;;;24.03;22.13;102652.38;4898689;29;20391;-87
2023/05/03 11:49:30;;;;;;;3.90;2.70;;;;;;;23.85;22.64;102651.44;4910725;29;20060;-86
2023/05/03 11:51:56;;;;;;;6.28;2.80;;;;;;;22.90;22.95;102647.88;4920469;29;20040;-86
2023/05/03 11:54:22;;;;;;;3.88;2.63;;;;;;;22.77;23.78;102649.75;4917365;29;20479;-86
2023/05/03 11:56:50;;;;;;;4.15;2.40;;;;;;;23.94;22.04;102646.41;4922759;29;20056;-87
2023/05/03 11:59:15;;;;;;;3.70;2.60;;;;;;;23.80;21.67;102645.00;4893458;29;20044;-87
2023/05/03 12:01:42;;;;;;;4.00;2.80;;;;;;;23.85;22.04;102647.84;4910370;29;20096;-87
2023/05/03 12:04:08;;;;;;;5.53;2.88;;;;;;;22.35;23.17;102642.34;4927795;29;21923;-87
2023/05/03 12:06:34;;;;;;;4.22;2.75;;;;;;;22.88;23.26;102633.56;4927685;29;20052;-86
2023/05/03 12:09:03;;;;;;;4.32;2.90;;;;;;;22.08;23.51;102630.88;4908199;29;20037;-87
2023/05/03 12:11:29;;;;;;;5.78;2.92;;;;;;;22.04;24.18;102625.03;4898978;29;20683;-87